NKJ YBAF-YBAF
Flight info
| Callsign | NKJ |
|---|---|
| Flight time | 0h 4m |
| Altitude | 1000 |
| Route | LOCAL CIRCUTS |
| Aircraft | C152/L-S/1200 |
Departure
| Time | 2026-04-13 01:27 |
|---|---|
| Airport | Brisbane Archerfield Airport (YBAF) |
Arrival
| Time | 2026-04-13 01:31 |
|---|---|
| Airport | Brisbane Archerfield Airport (YBAF) |
| Time | Latitude | Longitude | Altitude | Speed | Heading |
|---|---|---|---|---|---|
| 2026-04-13 01:02 | -27.57340 | 153.01234 | 67 ft | 0 kts | 9° |
| 2026-04-13 01:10 | -27.57337 | 153.01235 | 68 ft | 2 kts | 21° |
| 2026-04-13 01:10 | -27.57323 | 153.01210 | 61 ft | 8 kts | 280° |
| 2026-04-13 01:10 | -27.57314 | 153.01157 | 66 ft | 4 kts | 282° |
| 2026-04-13 01:10 | -27.57287 | 153.01137 | 65 ft | 8 kts | 329° |
| 2026-04-13 01:11 | -27.57270 | 153.01118 | 64 ft | 1 kts | 264° |
| 2026-04-13 01:11 | -27.57274 | 153.01116 | 64 ft | 0 kts | 142° |
| 2026-04-13 01:19 | -27.57296 | 153.01127 | 64 ft | 10 kts | 180° |
| 2026-04-13 01:19 | -27.57334 | 153.01093 | 64 ft | 8 kts | 272° |
| 2026-04-13 01:19 | -27.57313 | 153.01006 | 62 ft | 13 kts | 287° |
| 2026-04-13 01:20 | -27.57284 | 153.00902 | 63 ft | 15 kts | 287° |
| 2026-04-13 01:20 | -27.57268 | 153.00847 | 62 ft | 7 kts | 287° |
| 2026-04-13 01:20 | -27.57248 | 153.00779 | 60 ft | 10 kts | 289° |
| 2026-04-13 01:20 | -27.57225 | 153.00698 | 54 ft | 12 kts | 288° |
| 2026-04-13 01:21 | -27.57199 | 153.00606 | 55 ft | 12 kts | 287° |
| 2026-04-13 01:21 | -27.57174 | 153.00515 | 51 ft | 10 kts | 293° |
| 2026-04-13 01:21 | -27.57148 | 153.00426 | 48 ft | 13 kts | 287° |
| 2026-04-13 01:21 | -27.57123 | 153.00338 | 50 ft | 11 kts | 288° |
| 2026-04-13 01:22 | -27.57097 | 153.00246 | 47 ft | 13 kts | 287° |
| 2026-04-13 01:22 | -27.57075 | 153.00173 | 47 ft | 9 kts | 288° |
| 2026-04-13 01:22 | -27.57059 | 153.00113 | 47 ft | 7 kts | 286° |
| 2026-04-13 01:22 | -27.57039 | 153.00045 | 46 ft | 11 kts | 288° |
| 2026-04-13 01:23 | -27.57014 | 152.99957 | 44 ft | 12 kts | 288° |
| 2026-04-13 01:23 | -27.56994 | 152.99886 | 44 ft | 10 kts | 287° |
| 2026-04-13 01:23 | -27.56973 | 152.99816 | 44 ft | 9 kts | 289° |
| 2026-04-13 01:23 | -27.56956 | 152.99755 | 43 ft | 8 kts | 286° |
| 2026-04-13 01:24 | -27.56964 | 152.99698 | 43 ft | 7 kts | 204° |
| 2026-04-13 01:24 | -27.56974 | 152.99693 | 43 ft | 0 kts | 197° |
| 2026-04-13 01:25 | -27.56978 | 152.99692 | 43 ft | 4 kts | 198° |
| 2026-04-13 01:25 | -27.57022 | 152.99693 | 44 ft | 7 kts | 136° |
| 2026-04-13 01:25 | -27.57040 | 152.99745 | 44 ft | 8 kts | 107° |
| 2026-04-13 01:26 | -27.57061 | 152.99814 | 44 ft | 31 kts | 109° |
| 2026-04-13 01:26 | -27.57169 | 153.00212 | 87 ft | 67 kts | 108° |
| 2026-04-13 01:26 | -27.57286 | 153.00711 | 267 ft | 64 kts | 110° |
| 2026-04-13 01:26 | -27.57384 | 153.01204 | 437 ft | 63 kts | 110° |
| 2026-04-13 01:27 | -27.57501 | 153.01681 | 617 ft | 61 kts | 112° |
| 2026-04-13 01:27 | -27.57623 | 153.02133 | 763 ft | 58 kts | 112° |
| 2026-04-13 01:27 | -27.57773 | 153.02645 | 842 ft | 80 kts | 111° |
| 2026-04-13 01:27 | -27.57873 | 153.03292 | 913 ft | 89 kts | 73° |
| 2026-04-13 01:28 | -27.57385 | 153.03589 | 1009 ft | 91 kts | 1° |
| 2026-04-13 01:28 | -27.56731 | 153.03524 | 1027 ft | 98 kts | 334° |
| 2026-04-13 01:28 | -27.56132 | 153.03124 | 1027 ft | 104 kts | 307° |
| 2026-04-13 01:28 | -27.55917 | 153.02371 | 994 ft | 104 kts | 282° |
| 2026-04-13 01:29 | -27.55728 | 153.01584 | 1003 ft | 102 kts | 285° |
| 2026-04-13 01:29 | -27.55526 | 153.00841 | 1045 ft | 98 kts | 284° |
| 2026-04-13 01:29 | -27.55323 | 153.00079 | 937 ft | 109 kts | 286° |
| 2026-04-13 01:29 | -27.55284 | 152.99326 | 1005 ft | 88 kts | 239° |
| 2026-04-13 01:30 | -27.55676 | 152.98840 | 990 ft | 77 kts | 223° |
| 2026-04-13 01:30 | -27.56063 | 152.98584 | 920 ft | 60 kts | 190° |
| 2026-04-13 01:30 | -27.56504 | 152.98592 | 659 ft | 63 kts | 161° |
| 2026-04-13 01:30 | -27.56816 | 152.98939 | 413 ft | 74 kts | 118° |
| 2026-04-13 01:31 | -27.56968 | 152.99502 | 138 ft | 76 kts | 110° |
| 2026-04-13 01:31 | -27.57121 | 153.00035 | 52 ft | 62 kts | 114° |
| 2026-04-13 01:31 | -27.57233 | 153.00413 | 57 ft | 41 kts | 109° |
| 2026-04-13 01:31 | -27.57328 | 153.00808 | 151 ft | 59 kts | 108° |
| 2026-04-13 01:32 | -27.57448 | 153.01282 | 303 ft | 67 kts | 112° |
| 2026-04-13 01:32 | -27.57584 | 153.01801 | 447 ft | 71 kts | 111° |
| 2026-04-13 01:32 | -27.57607 | 153.02361 | 577 ft | 75 kts | 68° |
| 2026-04-13 01:32 | -27.57187 | 153.02669 | 699 ft | 79 kts | 11° |
| 2026-04-13 01:33 | -27.56642 | 153.02835 | 784 ft | 87 kts | 15° |
| 2026-04-13 01:33 | -27.56007 | 153.02852 | 696 ft | 102 kts | 321° |
| 2026-04-13 01:33 | -27.55761 | 153.02190 | 762 ft | 87 kts | 278° |
| 2026-04-13 01:33 | -27.55656 | 153.01541 | 836 ft | 85 kts | 278° |
| 2026-04-13 01:34 | -27.55546 | 153.00854 | 815 ft | 93 kts | 278° |
| 2026-04-13 01:34 | -27.55455 | 153.00148 | 868 ft | 87 kts | 275° |
| 2026-04-13 01:34 | -27.55358 | 152.99457 | 862 ft | 92 kts | 278° |
| 2026-04-13 01:34 | -27.55400 | 152.98797 | 910 ft | 79 kts | 234° |
| 2026-04-13 01:35 | -27.55820 | 152.98445 | 835 ft | 73 kts | 199° |
| 2026-04-13 01:35 | -27.56312 | 152.98376 | 634 ft | 76 kts | 175° |
| 2026-04-13 01:35 | -27.56738 | 152.98756 | 356 ft | 83 kts | 116° |
| 2026-04-13 01:35 | -27.56923 | 152.99350 | 142 ft | 79 kts | 111° |
| 2026-04-13 01:36 | -27.57083 | 152.99900 | 51 ft | 66 kts | 114° |
| 2026-04-13 01:36 | -27.57200 | 153.00301 | 54 ft | 38 kts | 110° |
| 2026-04-13 01:36 | -27.57305 | 153.00690 | 101 ft | 61 kts | 112° |
| 2026-04-13 01:36 | -27.57440 | 153.01168 | 241 ft | 64 kts | 113° |
| 2026-04-13 01:37 | -27.57560 | 153.01658 | 348 ft | 68 kts | 109° |
| 2026-04-13 01:37 | -27.57657 | 153.02156 | 460 ft | 63 kts | 107° |
| 2026-04-13 01:37 | -27.57639 | 153.02640 | 624 ft | 63 kts | 60° |
| 2026-04-13 01:37 | -27.57237 | 153.02880 | 649 ft | 76 kts | 7° |
| 2026-04-13 01:38 | -27.56661 | 153.02967 | 701 ft | 86 kts | 4° |
| 2026-04-13 01:38 | -27.56122 | 153.02743 | 811 ft | 90 kts | 326° |
| 2026-04-13 01:38 | -27.55813 | 153.02169 | 878 ft | 84 kts | 281° |
| 2026-04-13 01:38 | -27.55684 | 153.01516 | 883 ft | 85 kts | 281° |
| 2026-04-13 01:39 | -27.55554 | 153.00878 | 883 ft | 84 kts | 281° |
| 2026-04-13 01:39 | -27.55417 | 153.00238 | 861 ft | 83 kts | 283° |
| 2026-04-13 01:39 | -27.55291 | 152.99607 | 904 ft | 84 kts | 277° |
| 2026-04-13 01:39 | -27.55399 | 152.98973 | 752 ft | 80 kts | 232° |
| 2026-04-13 01:40 | -27.55815 | 152.98672 | 701 ft | 65 kts | 194° |
| 2026-04-13 01:40 | -27.56294 | 152.98614 | 511 ft | 74 kts | 182° |
| 2026-04-13 01:40 | -27.56740 | 152.98827 | 348 ft | 68 kts | 142° |
| 2026-04-13 01:40 | -27.56921 | 152.99354 | 135 ft | 71 kts | 114° |
| 2026-04-13 01:41 | -27.57063 | 152.99848 | 52 ft | 58 kts | 123° |
| 2026-04-13 01:41 | -27.57166 | 153.00182 | 52 ft | 38 kts | 108° |
| 2026-04-13 01:41 | -27.57275 | 153.00590 | 104 ft | 66 kts | 112° |
| 2026-04-13 01:41 | -27.57417 | 153.01100 | 263 ft | 67 kts | 113° |
| 2026-04-13 01:42 | -27.57542 | 153.01598 | 413 ft | 66 kts | 107° |
| 2026-04-13 01:42 | -27.57629 | 153.02076 | 534 ft | 60 kts | 107° |
| 2026-04-13 01:42 | -27.57404 | 153.02476 | 647 ft | 73 kts | 19° |
| 2026-04-13 01:43 | -27.55920 | 153.02365 | 856 ft | 77 kts | 298° |
| 2026-04-13 01:43 | -27.55792 | 153.01812 | 836 ft | 71 kts | 280° |
| 2026-04-13 01:43 | -27.55684 | 153.01258 | 817 ft | 73 kts | 280° |
| 2026-04-13 01:44 | -27.55573 | 153.00699 | 815 ft | 75 kts | 280° |
| 2026-04-13 01:44 | -27.55454 | 153.00104 | 890 ft | 80 kts | 279° |
| 2026-04-13 01:44 | -27.55342 | 152.99517 | 912 ft | 75 kts | 280° |
| 2026-04-13 01:44 | -27.55331 | 152.98931 | 822 ft | 75 kts | 248° |
| 2026-04-13 01:45 | -27.55703 | 152.98528 | 569 ft | 85 kts | 199° |
| 2026-04-13 01:45 | -27.56232 | 152.98499 | 429 ft | 70 kts | 173° |
| 2026-04-13 01:45 | -27.56639 | 152.98663 | 371 ft | 58 kts | 144° |
| 2026-04-13 01:45 | -27.56835 | 152.99070 | 249 ft | 61 kts | 109° |
| 2026-04-13 01:46 | -27.56966 | 152.99517 | 125 ft | 60 kts | 111° |
| 2026-04-13 01:46 | -27.57091 | 152.99940 | 48 ft | 49 kts | 107° |
| 2026-04-13 01:46 | -27.57163 | 153.00186 | 52 ft | 27 kts | 106° |
| 2026-04-13 01:46 | -27.57209 | 153.00357 | 56 ft | 18 kts | 107° |
| 2026-04-13 01:47 | -27.57222 | 153.00450 | 58 ft | 6 kts | 39° |
| 2026-04-13 01:47 | -27.57196 | 153.00463 | 55 ft | 0 kts | 24° |
| 2026-04-13 01:47 | -27.57169 | 153.00482 | 52 ft | 7 kts | 73° |
| 2026-04-13 01:48 | -27.57180 | 153.00539 | 55 ft | 7 kts | 108° |
| 2026-04-13 01:48 | -27.57193 | 153.00588 | 58 ft | 8 kts | 107° |
| 2026-04-13 01:48 | -27.57212 | 153.00654 | 60 ft | 9 kts | 107° |
| 2026-04-13 01:48 | -27.57231 | 153.00719 | 61 ft | 9 kts | 107° |
| 2026-04-13 01:49 | -27.57256 | 153.00806 | 64 ft | 8 kts | 108° |
| 2026-04-13 01:49 | -27.57268 | 153.00848 | 65 ft | 8 kts | 108° |
| 2026-04-13 01:49 | -27.57288 | 153.00917 | 61 ft | 14 kts | 109° |
| 2026-04-13 01:49 | -27.57321 | 153.01036 | 64 ft | 16 kts | 107° |
| 2026-04-13 01:50 | -27.57355 | 153.01126 | 69 ft | 8 kts | 153° |
| 2026-04-13 01:50 | -27.57376 | 153.01179 | 69 ft | 8 kts | 95° |
| 2026-04-13 01:50 | -27.57357 | 153.01228 | 71 ft | 6 kts | 22° |
| 2026-04-13 01:50 | -27.57339 | 153.01233 | 71 ft | 0 kts | 13° |